• Join FlightAware (Why Join?)
  • Login
  • US Flag 
11:23AM EDT


 

Airport Tracker/Info


-or-


 

Live Flight TrackerFlight Track Log ✈ A6-EGC ✈ 07-Apr-2013 ✈ OMDB / DXB - YPPH / PER

Flight Track Log - Related Links

Times and Time Zones

All times are in EDT time to prevent confusion due to time zone crossing. See the A6-EGC flight status page for this flight to view local times or setup timezone preferences in your user account.

Time Position Orientation Groundspeed Altitude Reporting Facility
EDT Latitude Longitude Course Direction KTS MPH feet Rate Location/Type
08:04PM 25.2680 55.3440 301° West 205 236 1,200  Level FlightAware
08:04PM 25.2790 55.3240 301° West 189 217 2,800 3,300 Climbing FlightAware
08:04PM 25.2880 55.3080 302° West 176 203 3,700 1,860 Climbing FlightAware
08:05PM 25.2990 55.2900 304° West 196 226 4,200 1,200 Climbing FlightAware
08:05PM 25.3170 55.2840 343° North 236 272 4,500 1,320 Climbing FlightAware
08:05PM 25.3460 55.2950 19° North 281 323 5,100 1,320 Climbing FlightAware
08:06PM 25.3630 55.3080 35° Northeast 303 349 5,400 1,920 Climbing FlightAware
08:06PM 25.3920 55.3300 34° Northeast 314 361 6,400 2,280 Climbing FlightAware
08:07PM 25.4270 55.3570 35° Northeast 325 374 7,500 2,220 Climbing FlightAware
08:07PM 25.4440 55.3740 42° Northeast 331 381 8,100 2,520 Climbing FlightAware
08:07PM 25.4590 55.4040 61° Northeast 334 384 9,000 2,940 Climbing FlightAware
08:08PM 25.4360 55.5480 100° East 342 394 12,800 2,040 Climbing FlightAware
08:10PM 25.4120 55.7270 98° East 420 483 14,700 1,920 Climbing FlightAware
08:11PM 25.3890 55.9160 98° East 417 480 18,600 2,160 Climbing FlightAware
08:13PM 25.3710 56.0580 98° East 438 504 20,400 1,620 Climbing FlightAware
08:14PM 25.3500 56.2210 98° East 459 528 22,300 1,680 Climbing FlightAware
08:15PM 25.3310 56.3710 98° East 463 533 24,300 1,320 Climbing FlightAware
08:16PM 25.3060 56.5630 98° East 490 564 25,500 1,080 Climbing FlightAware
08:18PM 25.2290 56.7920 110° East 500 575 27,600 1,200 Climbing FlightAware
08:19PM 25.1800 56.9200 113° Southeast 510 587 28,600 960 Climbing FlightAware
08:20PM 25.1130 57.0960 113° Southeast 528 608 29,700 540 Climbing FlightAware
08:21PM 25.0800 57.1810 113° Southeast 529 609 29,700  Level FlightAware
08:21PM 25.0480 57.2650 113° Southeast 529 609 29,700  Level FlightAware
08:22PM 25.0070 57.3710 113° Southeast 529 609 29,700  Level FlightAware
08:23PM 24.9750 57.4550 113° Southeast 529 609 29,700  Level FlightAware
08:23PM 24.9420 57.5400 113° Southeast 529 609 29,700  Level FlightAware
08:26PM 24.7571 57.7605 133° Southeast  Level Estimated
08:27PM 24.6703 57.8636 133° Southeast  Level Estimated
08:28PM 24.5835 57.9665 133° Southeast  Level Estimated
08:29PM 24.4966 58.0694 133° Southeast  Level Estimated
08:30PM 24.4096 58.1721 133° Southeast  Level Estimated
08:31PM 24.3226 58.2746 133° Southeast  Level Estimated
08:32PM 24.2355 58.3770 133° Southeast  Level Estimated
08:33PM 24.1483 58.4793 133° Southeast  Level Estimated
08:34PM 24.0610 58.5814 133° Southeast  Level Estimated
08:35PM 23.9737 58.6834 133° Southeast  Level Estimated
08:36PM 23.8863 58.7853 133° Southeast  Level Estimated
08:37PM 23.7988 58.8870 133° Southeast  Level Estimated
08:38PM 23.7113 58.9885 133° Southeast  Level Estimated
08:39PM 23.6237 59.0900 133° Southeast  Level Estimated
08:40PM 23.5361 59.1913 133° Southeast  Level Estimated
08:41PM 23.4483 59.2925 133° Southeast  Level Estimated
08:42PM 23.3605 59.3935 133° Southeast  Level Estimated
08:43PM 23.2727 59.4944 133° Southeast  Level Estimated
08:44PM 23.1848 59.5952 133° Southeast  Level Estimated
08:45PM 23.0968 59.6958 134° Southeast  Level Estimated
08:46PM 23.0088 59.7963 134° Southeast  Level Estimated
08:47PM 22.9206 59.8967 134° Southeast  Level Estimated
08:48PM 22.8325 59.9969 134° Southeast  Level Estimated
08:49PM 22.7442 60.0970 134° Southeast  Level Estimated
08:50PM 22.6559 60.1970 134° Southeast  Level Estimated
08:51PM 22.5676 60.2968 134° Southeast  Level Estimated
08:52PM 22.4792 60.3966 134° Southeast  Level Estimated
08:53PM 22.3907 60.4962 134° Southeast  Level Estimated
08:54PM 22.3021 60.5956 134° Southeast  Level Estimated
08:55PM 22.2135 60.6950 134° Southeast  Level Estimated
08:56PM 22.1249 60.7942 134° Southeast  Level Estimated
08:57PM 22.0362 60.8933 134° Southeast  Level Estimated
08:58PM 21.9474 60.9923 134° Southeast  Level Estimated
08:59PM 21.8585 61.0911 134° Southeast  Level Estimated
09:00PM 21.7696 61.1898 134° Southeast  Level Estimated
09:01PM 21.6807 61.2884 134° Southeast  Level Estimated
09:02PM 21.5917 61.3869 134° Southeast  Level Estimated
09:03PM 21.5026 61.4853 134° Southeast  Level Estimated
09:04PM 21.4135 61.5835 134° Southeast  Level Estimated
09:05PM 21.3243 61.6816 134° Southeast  Level Estimated
09:06PM 21.2350 61.7797 134° Southeast  Level Estimated
09:07PM 21.1457 61.8775 134° Southeast  Level Estimated
09:08PM 21.0564 61.9753 134° Southeast  Level Estimated
09:08PM 22.7090 64.5590 134° Southeast 545 627 31,000  Level FlightAware
09:09PM 20.9669 62.0729 134° Southeast  Level Estimated
09:09PM 22.6610 64.6660 116° Southeast 546 628 31,000  Level FlightAware
09:09PM 22.6320 64.7330 115° Southeast 546 628 31,000  Level FlightAware
09:10PM 22.5950 64.8170 115° Southeast 546 628 31,000  Level FlightAware
09:11PM 22.5590 64.9020 115° Southeast 546 628 31,000  Level FlightAware
09:11PM 22.4840 65.0540 118° Southeast 545 627 31,000  Level FlightAware
09:12PM 22.4280 65.1770 116° Southeast 543 625 31,000  Level FlightAware
09:13PM 22.3890 65.2610 117° Southeast 542 624 31,000  Level FlightAware
09:14PM 22.3440 65.3610 116° Southeast 542 624 31,000  Level FlightAware
09:14PM 22.3070 65.4440 116° Southeast 542 624 31,000  Level FlightAware
09:15PM 22.2690 65.5260 117° Southeast 542 624 31,000  Level FlightAware
09:16PM 22.2320 65.6090 116° Southeast 542 624 31,000  Level FlightAware
09:16PM 22.1850 65.7130 116° Southeast 542 624 31,000  Level FlightAware
09:17PM 22.1480 65.7950 116° Southeast 542 624 31,000  Level FlightAware
09:18PM 22.1100 65.8780 116° Southeast 542 624 31,000  Level FlightAware
09:18PM 22.0730 65.9610 116° Southeast 542 624 31,000  Level FlightAware
09:19PM 22.0360 66.0430 116° Southeast 542 624 31,000  Level FlightAware
09:20PM 21.9890 66.1470 116° Southeast 542 624 31,000  Level FlightAware
09:21PM 21.9520 66.2290 116° Southeast 542 624 31,000  Level FlightAware
09:21PM 21.9140 66.3120 116° Southeast 542 624 31,000  Level FlightAware
09:22PM 21.8770 66.3950 116° Southeast 542 624 31,000  Level FlightAware
09:23PM 21.8390 66.4770 117° Southeast 542 624 31,000  Level FlightAware
09:25PM 21.7302 66.7207 116° Southeast  Level FlightAware Approximate
09:26PM 21.6748 66.8445 116° Southeast  Level FlightAware Approximate
09:27PM 21.6192 66.9682 116° Southeast  Level FlightAware Approximate
09:28PM 21.5636 67.0918 116° Southeast  Level FlightAware Approximate
09:29PM 21.5079 67.2153 116° Southeast  Level FlightAware Approximate
09:30PM 21.4520 67.3388 116° Southeast  Level FlightAware Approximate
09:31PM 21.3961 67.4621 116° Southeast  Level FlightAware Approximate
09:32PM 21.3401 67.5853 116° Southeast  Level FlightAware Approximate
09:33PM 21.2840 67.7084 116° Southeast  Level FlightAware Approximate
09:34PM 21.2279 67.8315 116° Southeast  Level FlightAware Approximate
09:35PM 21.1716 67.9544 116° Southeast  Level FlightAware Approximate
09:36PM 21.1188 68.0790 113° Southeast  Level FlightAware Approximate
09:37PM 21.0679 68.2045 113° Southeast  Level FlightAware Approximate
09:38PM 21.0169 68.3299 114° Southeast  Level FlightAware Approximate
09:39PM 20.9659 68.4553 114° Southeast  Level FlightAware Approximate
09:40PM 20.9147 68.5806 114° Southeast  Level FlightAware Approximate
09:41PM 20.8635 68.7057 114° Southeast  Level FlightAware Approximate
09:42PM 20.8121 68.8308 114° Southeast  Level FlightAware Approximate
09:43PM 20.7607 68.9558 114° Southeast  Level FlightAware Approximate
09:44PM 20.7092 69.0808 114° Southeast  Level FlightAware Approximate
09:45PM 20.6576 69.2056 114° Southeast  Level FlightAware Approximate
09:46PM 20.6059 69.3304 114° Southeast  Level FlightAware Approximate
09:47PM 20.5541 69.4550 114° Southeast  Level FlightAware Approximate
09:48PM 20.5023 69.5796 114° Southeast  Level FlightAware Approximate
09:49PM 20.4503 69.7041 114° Southeast  Level FlightAware Approximate
09:50PM 20.3983 69.8286 114° Southeast  Level FlightAware Approximate
09:51PM 20.3461 69.9529 114° Southeast  Level FlightAware Approximate
09:52PM 20.2939 70.0771 114° Southeast  Level FlightAware Approximate
09:53PM 20.2416 70.2013 114° Southeast  Level FlightAware Approximate
09:54PM 20.1892 70.3254 114° Southeast  Level FlightAware Approximate
09:55PM 20.1367 70.4494 114° Southeast  Level FlightAware Approximate
09:56PM 20.0841 70.5733 114° Southeast  Level FlightAware Approximate
09:57PM 20.0315 70.6971 114° Southeast  Level FlightAware Approximate
09:58PM 19.9787 70.8209 114° Southeast  Level FlightAware Approximate
09:59PM 19.9259 70.9446 114° Southeast  Level FlightAware Approximate
10:00PM 19.8730 71.0681 114° Southeast  Level FlightAware Approximate
10:01PM 19.8200 71.1916 115° Southeast  Level FlightAware Approximate
10:02PM 19.7669 71.3151 115° Southeast  Level FlightAware Approximate
10:03PM 19.7137 71.4384 115° Southeast  Level FlightAware Approximate
10:04PM 19.6604 71.5617 115° Southeast  Level FlightAware Approximate
10:05PM 19.6071 71.6848 115° Southeast  Level FlightAware Approximate
10:06PM 19.5537 71.8079 115° Southeast  Level FlightAware Approximate
10:07PM 19.5002 71.9309 115° Southeast  Level FlightAware Approximate
10:07PM 18.9500 72.8740 115° Southeast 503 579 31,000  Level FlightAware
10:07PM 18.8560 72.8970 167° South 501 577 31,000  Level FlightAware
10:08PM 19.4466 72.0538 115° Southeast  Level FlightAware Approximate
10:08PM 18.7640 72.9210 166° South 501 577 31,000  Level FlightAware
10:09PM 18.6640 72.9460 167° South 501 577 31,000  Level FlightAware
10:10PM 18.5700 72.9690 167° South 501 577 31,000  Level FlightAware
10:10PM 18.4720 72.9940 166° South 499 574 31,000  Level FlightAware
10:11PM 18.3820 73.0170 166° South 498 573 31,000  Level FlightAware
10:12PM 18.2810 73.0420 167° South 498 573 31,000  Level FlightAware
10:12PM 18.1920 73.0650 166° South 501 577 31,000  Level FlightAware
10:13PM 18.0960 73.0890 167° South 501 577 31,000  Level FlightAware
10:14PM 17.9980 73.1130 167° South 501 577 31,000  Level FlightAware
10:14PM 17.9070 73.1360 166° South 502 578 31,000  Level FlightAware
10:15PM 17.8060 73.1610 167° South 501 577 31,000  Level FlightAware
10:16PM 17.7120 73.1850 166° South 501 577 31,000 120 Level FlightAware
10:17PM 17.6270 73.2060 167° South 504 580 31,200 900 Climbing FlightAware
10:17PM 17.5200 73.2330 166° South 500 575 32,300 1,260 Climbing FlightAware
10:18PM 17.4320 73.2550 167° South 494 568 33,000 480 Climbing FlightAware
10:19PM 17.3330 73.2790 167° South 493 567 33,000  Level FlightAware
10:19PM 17.2400 73.3020 167° South 494 568 33,000  Level FlightAware
10:20PM 17.1420 73.3310 164° South 497 572 33,000  Level FlightAware
10:21PM 17.0680 73.3870 144° Southeast 507 583 33,000  Level FlightAware
10:21PM 17.0080 73.4470 136° Southeast 507 583 33,000  Level FlightAware
10:22PM 16.9510 73.5050 136° Southeast 507 583 33,000  Level FlightAware
10:23PM 16.8520 73.5990 138° Southeast 511 588 33,000  Level FlightAware
10:23PM 16.7940 73.6570 136° Southeast 511 588 33,000  Level FlightAware
10:24PM 16.7130 73.7370 137° Southeast 511 588 33,000  Level FlightAware
10:25PM 16.6550 73.7950 136° Southeast 511 588 33,000  Level FlightAware
10:26PM 16.5980 73.8540 135° Southeast 511 588 33,000  Level FlightAware
10:26PM 16.5400 73.9120 136° Southeast 511 588 33,000  Level FlightAware
10:27PM 16.4680 73.9850 136° Southeast 511 588 33,000  Level FlightAware
10:28PM 16.4100 74.0430 136° Southeast 511 588 33,000  Level FlightAware
10:28PM 16.3520 74.1010 136° Southeast 511 588 33,000  Level FlightAware
10:29PM 16.2940 74.1590 136° Southeast 511 588 33,000  Level FlightAware
10:30PM 16.2360 74.2170 136° Southeast 511 588 33,000  Level FlightAware
10:31PM 16.1640 74.2900 136° Southeast 511 588 33,000  Level FlightAware
10:31PM 16.1060 74.3480 136° Southeast 511 588 33,000  Level FlightAware
10:32PM 16.0480 74.4060 136° Southeast 511 588 33,000  Level FlightAware
10:33PM 15.9900 74.4640 136° Southeast 511 588 33,000  Level FlightAware
10:33PM 15.9330 74.5230 135° Southeast 511 588 33,000  Level FlightAware
10:36PM 15.6831 74.6612 152° Southeast  Level FlightAware Approximate
10:37PM 15.5704 74.7234 152° Southeast  Level FlightAware Approximate
10:38PM 15.4576 74.7855 152° Southeast  Level FlightAware Approximate
10:39PM 15.3448 74.8476 152° Southeast  Level FlightAware Approximate
10:40PM 15.2320 74.9096 152° Southeast  Level FlightAware Approximate
10:41PM 15.1192 74.9716 152° Southeast  Level FlightAware Approximate
10:42PM 15.0063 75.0335 152° Southeast  Level FlightAware Approximate
10:43PM 14.8935 75.0953 152° Southeast  Level FlightAware Approximate
10:44PM 14.7806 75.1570 152° Southeast  Level FlightAware Approximate
10:45PM 14.6677 75.2187 152° Southeast  Level FlightAware Approximate
10:46PM 14.5548 75.2804 152° Southeast  Level FlightAware Approximate
10:47PM 14.4419 75.3419 152° Southeast  Level FlightAware Approximate
10:48PM 14.3289 75.4034 152° Southeast  Level FlightAware Approximate
10:49PM 14.2160 75.4649 152° Southeast  Level FlightAware Approximate
10:50PM 14.1030 75.5262 152° Southeast  Level FlightAware Approximate
10:51PM 13.9922 75.5928 149° Southeast  Level FlightAware Approximate
10:52PM 13.8823 75.6600 149° Southeast  Level FlightAware Approximate
10:53PM 13.7725 75.7270 149° Southeast  Level FlightAware Approximate
10:54PM 13.6627 75.7940 149° Southeast  Level FlightAware Approximate
10:55PM 13.5528 75.8609 149° Southeast  Level FlightAware Approximate
10:56PM 13.4429 75.9278 149° Southeast  Level FlightAware Approximate
10:57PM 13.3330 75.9946 149° Southeast  Level FlightAware Approximate
10:58PM 13.2230 76.0613 149° Southeast  Level FlightAware Approximate
10:59PM 13.1131 76.1280 149° Southeast  Level FlightAware Approximate
11:00PM 13.0031 76.1946 149° Southeast  Level FlightAware Approximate
11:01PM 12.8931 76.2612 149° Southeast  Level FlightAware Approximate
11:02PM 12.7831 76.3277 149° Southeast  Level FlightAware Approximate
11:03PM 12.6731 76.3941 149° Southeast  Level FlightAware Approximate
11:04PM 12.5631 76.4605 150° Southeast  Level FlightAware Approximate
11:05PM 12.4530 76.5268 150° Southeast  Level FlightAware Approximate
11:05PM 11.8250 76.6110 150° Southeast 496 571 33,000  Level FlightAware
11:06PM 12.3430 76.5931 150° Southeast  Level FlightAware Approximate
11:06PM 11.7430 76.6580 151° Southeast 496 571 33,000  Level FlightAware
11:06PM 11.6520 76.7080 152° Southeast 498 573 33,000  Level FlightAware
11:07PM 11.5840 76.7460 151° Southeast 498 573 33,000  Level FlightAware
11:08PM 11.4780 76.8030 152° Southeast 497 572 33,000  Level FlightAware
11:08PM 11.3930 76.8500 152° Southeast 496 571 33,000  Level FlightAware
11:09PM 11.3120 76.8950 151° Southeast 495 570 33,000  Level FlightAware
11:10PM 11.2220 76.9440 152° Southeast 497 572 33,000  Level FlightAware
11:11PM 11.1090 77.0070 151° Southeast 499 574 33,000  Level FlightAware
11:11PM 11.0300 77.0550 149° Southeast 500 575 33,000  Level FlightAware
11:12PM 10.9560 77.1160 141° Southeast 498 573 33,000  Level FlightAware
11:13PM 10.8810 77.1810 140° Southeast 499 574 33,000  Level FlightAware
11:13PM 10.8090 77.2430 140° Southeast 499 574 33,000  Level FlightAware
11:14PM 10.7280 77.3140 139° Southeast 501 577 33,000  Level FlightAware
11:15PM 10.6610 77.3720 140° Southeast 500 575 33,000  Level FlightAware
11:16PM 10.5950 77.4290 140° Southeast 499 574 33,000  Level FlightAware
11:16PM 10.5150 77.4980 140° Southeast 500 575 33,000  Level FlightAware
11:17PM 10.4570 77.5500 139° Southeast 500 575 33,000  Level FlightAware
11:18PM 10.3630 77.6300 140° Southeast 502 578 33,000  Level FlightAware
11:18PM 10.2930 77.6920 139° Southeast 502 578 33,000  Level FlightAware
11:19PM 10.2340 77.7440 139° Southeast 502 578 33,000  Level FlightAware
11:20PM 10.1740 77.7970 139° Southeast 502 578 33,000  Level FlightAware
11:20PM 10.1140 77.8500 139° Southeast 502 578 33,000  Level FlightAware
11:23PM 9.9128 78.0200 140° Southeast  Level FlightAware Approximate
11:24PM 9.8061 78.0973 162° South  Level FlightAware Approximate
11:25PM 9.6847 78.1375 162° South  Level FlightAware Approximate
11:26PM 9.5633 78.1776 162° South  Level FlightAware Approximate
11:27PM 9.4419 78.2178 162° South  Level FlightAware Approximate
11:28PM 9.3205 78.2579 162° South  Level FlightAware Approximate
11:29PM 9.1991 78.2979 162° South  Level FlightAware Approximate
11:30PM 9.0777 78.3380 162° South  Level FlightAware Approximate
11:31PM 8.9563 78.3780 162° South  Level FlightAware Approximate
11:32PM 8.8349 78.4180 162° South  Level FlightAware Approximate
11:33PM 8.7135 78.4579 162° South  Level FlightAware Approximate
11:34PM 8.5920 78.4979 162° South  Level FlightAware Approximate
11:35PM 8.4706 78.5378 162° South  Level FlightAware Approximate
11:35PM 8.2680 78.6210 162° South 485 558 33,000  Level FlightAware
11:35PM 8.2160 78.6700 137° Southeast 483 556 33,000  Level FlightAware
11:36PM 8.1460 78.7560 129° Southeast 484 557 33,000  Level FlightAware
11:37PM 8.0960 78.8140 131° Southeast 484 557 33,000  Level FlightAware
11:37PM 8.0460 78.8720 131° Southeast 484 557 33,000  Level FlightAware
11:38PM 7.9570 78.9680 133° Southeast 484 557 33,000  Level FlightAware
11:39PM 7.8840 79.0490 132° Southeast 486 559 33,000  Level FlightAware
11:39PM 7.8240 79.1170 132° Southeast 485 558 33,000  Level FlightAware
11:40PM 7.7620 79.1860 132° Southeast 487 560 33,000  Level FlightAware
11:41PM 7.6980 79.2580 132° Southeast 486 559 33,000  Level FlightAware
11:42PM 7.6380 79.3270 131° Southeast 486 559 33,000  Level FlightAware
11:42PM 7.5770 79.3960 132° Southeast 487 560 33,000  Level FlightAware
11:43PM 7.5100 79.4730 131° Southeast 487 560 33,000  Level FlightAware
11:44PM 7.4500 79.5400 132° Southeast 485 558 33,000  Level FlightAware
11:44PM 7.3840 79.6160 131° Southeast 486 559 33,000  Level FlightAware
11:45PM 7.3230 79.6850 132° Southeast 486 559 33,000  Level FlightAware
11:46PM 7.2630 79.7530 132° Southeast 486 559 33,000  Level FlightAware
11:46PM 7.1960 79.8290 132° Southeast 488 562 33,000  Level FlightAware
11:47PM 7.1320 79.8970 133° Southeast 487 560 33,000  Level FlightAware
11:48PM 7.0610 79.9650 136° Southeast 488 562 33,000  Level FlightAware
11:49PM 6.9950 80.0280 137° Southeast 487 560 33,000  Level FlightAware
11:49PM 6.9300 80.0910 136° Southeast 488 562 33,000  Level FlightAware
11:50PM 6.8550 80.1630 136° Southeast 488 562 33,000  Level FlightAware
11:51PM 6.7900 80.2250 137° Southeast 488 562 33,000  Level FlightAware
11:51PM 6.7270 80.2850 137° Southeast 488 562 33,000  Level FlightAware
11:52PM 6.6530 80.3570 136° Southeast 486 559 33,000  Level FlightAware
11:53PM 6.5700 80.4360 137° Southeast 485 558 33,000  Level FlightAware
11:54PM 6.5050 80.4990 136° Southeast 485 558 33,000  Level FlightAware
11:54PM 6.4500 80.5520 136° Southeast 485 558 33,000  Level FlightAware
11:55PM 6.3950 80.6060 136° Southeast 485 558 33,000  Level FlightAware
11:56PM 6.3260 80.6720 136° Southeast 485 558 33,000  Level FlightAware
11:56PM 6.2720 80.7260 135° Southeast 485 558 33,000  Level FlightAware
11:57PM 6.2170 80.7790 136° Southeast 485 558 33,000  Level FlightAware
11:58PM 6.1620 80.8320 136° Southeast 485 558 33,000  Level FlightAware
11:58PM 6.1070 80.8860 136° Southeast 485 558 33,000  Level FlightAware
11:59PM 6.0380 80.9520 136° Southeast 485 558 33,000  Level FlightAware
12:00AM 5.9830 81.0060 136° Southeast 485 558 33,000  Level FlightAware
12:01AM 5.9290 81.0590 136° Southeast 485 558 33,000  Level FlightAware
12:01AM 5.8740 81.1120 136° Southeast 485 558 33,000  Level FlightAware
12:02AM 5.8190 81.1650 136° Southeast 485 558 33,000  Level FlightAware
12:03AM 5.7500 81.2320 136° Southeast 485 558 33,000  Level FlightAware
12:05AM 5.5809 81.3722 140° Southeast  Level FlightAware Approximate
12:06AM 5.4825 81.4538 140° Southeast  Level FlightAware Approximate
12:07AM 5.3839 81.5355 140° Southeast  Level FlightAware Approximate
12:08AM 5.2854 81.6170 140° Southeast  Level FlightAware Approximate
12:09AM 5.1869 81.6986 140° Southeast  Level FlightAware Approximate
12:10AM 5.0883 81.7801 141° Southeast  Level FlightAware Approximate
12:11AM 4.9898 81.8616 141° Southeast  Level FlightAware Approximate
12:12AM 4.8912 81.9431 141° Southeast  Level FlightAware Approximate
12:13AM 4.7927 82.0246 141° Southeast  Level FlightAware Approximate
12:14AM 4.6941 82.1060 141° Southeast  Level FlightAware Approximate
12:15AM 4.5955 82.1874 141° Southeast  Level FlightAware Approximate
12:16AM 4.4969 82.2688 141° Southeast  Level FlightAware Approximate
12:17AM 4.3983 82.3502 141° Southeast  Level FlightAware Approximate
12:18AM 4.2997 82.4315 141° Southeast  Level FlightAware Approximate
12:19AM 4.2011 82.5129 141° Southeast  Level FlightAware Approximate
12:20AM 4.1024 82.5942 141° Southeast  Level FlightAware Approximate
12:21AM 4.0038 82.6755 141° Southeast  Level FlightAware Approximate
12:22AM 3.9052 82.7567 141° Southeast  Level FlightAware Approximate
12:23AM 3.8065 82.8380 141° Southeast  Level FlightAware Approximate
12:24AM 3.7078 82.9192 141° Southeast  Level FlightAware Approximate
12:25AM 3.6092 83.0004 141° Southeast  Level FlightAware Approximate
12:26AM 3.5101 83.0830 140° Southeast  Level FlightAware Approximate
12:27AM 3.4121 83.1650 140° Southeast  Level FlightAware Approximate
12:28AM 3.3141 83.2470 140° Southeast  Level FlightAware Approximate
12:29AM 3.2160 83.3289 140° Southeast  Level FlightAware Approximate
12:30AM 3.1180 83.4109 140° Southeast  Level FlightAware Approximate
12:31AM 3.0199 83.4928 140° Southeast  Level FlightAware Approximate
12:32AM 2.9219 83.5747 140° Southeast  Level FlightAware Approximate
12:33AM 2.8238 83.6566 140° Southeast  Level FlightAware Approximate
12:34AM 2.7258 83.7385 140° Southeast  Level FlightAware Approximate
12:35AM 2.6277 83.8203 140° Southeast  Level FlightAware Approximate
12:36AM 2.5297 83.9022 140° Southeast  Level FlightAware Approximate
12:37AM 2.4316 83.9840 140° Southeast  Level FlightAware Approximate
12:38AM 2.3335 84.0658 140° Southeast  Level FlightAware Approximate
12:39AM 2.2354 84.1477 140° Southeast  Level FlightAware Approximate
12:40AM 2.1373 84.2295 140° Southeast  Level FlightAware Approximate
12:41AM 2.0392 84.3113 140° Southeast  Level FlightAware Approximate
12:42AM 1.9411 84.3931 140° Southeast  Level FlightAware Approximate
12:43AM 1.8430 84.4748 140° Southeast  Level FlightAware Approximate
12:44AM 1.7449 84.5566 140° Southeast  Level FlightAware Approximate
12:45AM 1.6468 84.6384 140° Southeast  Level FlightAware Approximate
12:46AM 1.5487 84.7201 140° Southeast  Level FlightAware Approximate
12:47AM 1.4506 84.8018 140° Southeast  Level FlightAware Approximate
12:48AM 1.3525 84.8836 140° Southeast  Level FlightAware Approximate
12:49AM 1.2543 84.9653 140° Southeast  Level FlightAware Approximate
12:50AM 1.1562 85.0470 140° Southeast  Level FlightAware Approximate
12:51AM 1.0581 85.1287 140° Southeast  Level FlightAware Approximate
12:52AM 0.9633 85.2143 138° Southeast  Level FlightAware Approximate
12:53AM 0.8688 85.3001 138° Southeast  Level FlightAware Approximate
12:54AM 0.7743 85.3860 138° Southeast  Level FlightAware Approximate
12:55AM 0.6798 85.4719 138° Southeast  Level FlightAware Approximate
12:56AM 0.5852 85.5577 138° Southeast  Level FlightAware Approximate
12:57AM 0.4907 85.6436 138° Southeast  Level FlightAware Approximate
12:58AM 0.3962 85.7294 138° Southeast  Level FlightAware Approximate
12:59AM 0.3016 85.8152 138° Southeast  Level FlightAware Approximate
01:00AM 0.2071 85.9011 138° Southeast  Level FlightAware Approximate
01:01AM 0.1126 85.9869 138° Southeast  Level FlightAware Approximate
01:02AM 0.0181 86.0728 138° Southeast  Level FlightAware Approximate
01:03AM -0.0765 86.1586 138° Southeast  Level FlightAware Approximate
01:04AM -0.1710 86.2444 138° Southeast  Level FlightAware Approximate
01:05AM -0.2655 86.3303 138° Southeast  Level FlightAware Approximate
01:06AM -0.3610 86.4150 139° Southeast  Level FlightAware Approximate
01:07AM -0.4575 86.4987 139° Southeast  Level FlightAware Approximate
01:08AM -0.5539 86.5824 139° Southeast  Level FlightAware Approximate
01:09AM -0.6503 86.6661 139° Southeast  Level FlightAware Approximate
01:10AM -0.7468 86.7498 139° Southeast  Level FlightAware Approximate
01:11AM -0.8432 86.8335 139° Southeast  Level FlightAware Approximate
01:12AM -0.9396 86.9172 139° Southeast  Level FlightAware Approximate
01:13AM -1.0360 87.0009 139° Southeast  Level FlightAware Approximate
01:14AM -1.1325 87.0846 139° Southeast  Level FlightAware Approximate
01:15AM -1.2289 87.1684 139° Southeast  Level FlightAware Approximate
01:16AM -1.3253 87.2521 139° Southeast  Level FlightAware Approximate
01:17AM -1.4217 87.3358 139° Southeast  Level FlightAware Approximate
01:18AM -1.5181 87.4196 139° Southeast  Level FlightAware Approximate
01:19AM -1.6145 87.5033 139° Southeast  Level FlightAware Approximate
01:20AM -1.7110 87.5871 139° Southeast  Level FlightAware Approximate
01:21AM -1.8074 87.6709 139° Southeast  Level FlightAware Approximate
01:22AM -1.9037 87.7546 139° Southeast  Level FlightAware Approximate
01:23AM -2.0002 87.8384 144° Southeast  Level FlightAware Approximate
01:24AM -2.1039 87.9129 144° Southeast  Level FlightAware Approximate
01:25AM -2.2076 87.9874 144° Southeast  Level FlightAware Approximate
01:26AM -2.3114 88.0619 144° Southeast  Level FlightAware Approximate
01:27AM -2.4151 88.1365 144° Southeast  Level FlightAware Approximate
01:28AM -2.5188 88.2110 144° Southeast  Level FlightAware Approximate
01:29AM -2.6225 88.2856 144° Southeast  Level FlightAware Approximate
01:30AM -2.7262 88.3601 144° Southeast  Level FlightAware Approximate
01:31AM -2.8300 88.4347 144° Southeast  Level FlightAware Approximate
01:32AM -2.9337 88.5093 144° Southeast  Level FlightAware Approximate
01:33AM -3.0373 88.5839 144° Southeast  Level FlightAware Approximate
01:34AM -3.1410 88.6585 144° Southeast  Level FlightAware Approximate
01:35AM -3.2447 88.7331 144° Southeast  Level FlightAware Approximate
01:36AM -3.3484 88.8078 144° Southeast  Level FlightAware Approximate
01:37AM -3.4521 88.8824 144° Southeast  Level FlightAware Approximate
01:38AM -3.5558 88.9571 144° Southeast  Level FlightAware Approximate
01:39AM -3.6594 89.0318 144° Southeast  Level FlightAware Approximate
01:40AM -3.7631 89.1065 144° Southeast  Level FlightAware Approximate
01:41AM -3.8667 89.1813 144° Southeast  Level FlightAware Approximate
01:42AM -3.9704 89.2560 144° Southeast  Level FlightAware Approximate
01:43AM -4.0740 89.3308 144° Southeast  Level FlightAware Approximate
01:44AM -4.1776 89.4056 144° Southeast  Level FlightAware Approximate
01:45AM -4.2813 89.4804 144° Southeast  Level FlightAware Approximate
01:46AM -4.3849 89.5552 144° Southeast  Level FlightAware Approximate
01:47AM -4.4885 89.6301 144° Southeast  Level FlightAware Approximate
01:48AM -4.5921 89.7049 144° Southeast  Level FlightAware Approximate
01:49AM -4.6957 89.7798 144° Southeast  Level FlightAware Approximate
01:50AM -4.7993 89.8547 144° Southeast  Level FlightAware Approximate
01:51AM -4.9029 89.9297 144° Southeast  Level FlightAware Approximate
01:52AM -5.0068 90.0040 149° Southeast  Level FlightAware Approximate
01:53AM -5.1168 90.0692 149° Southeast  Level FlightAware Approximate
01:54AM -5.2267 90.1344 149° Southeast  Level FlightAware Approximate
01:55AM -5.3366 90.1997 149° Southeast  Level FlightAware Approximate
01:56AM -5.4465 90.2649 149° Southeast  Level FlightAware Approximate
01:57AM -5.5565 90.3302 149° Southeast  Level FlightAware Approximate
01:58AM -5.6664 90.3955 149° Southeast  Level FlightAware Approximate
01:59AM -5.7763 90.4609 149° Southeast  Level FlightAware Approximate
02:00AM -5.8862 90.5262 149° Southeast  Level FlightAware Approximate
02:01AM -5.9960 90.5916 149° Southeast  Level FlightAware Approximate
02:02AM -6.1059 90.6570 149° Southeast  Level FlightAware Approximate
02:03AM -6.2158 90.7225 149° Southeast  Level FlightAware Approximate
02:04AM -6.3257 90.7879 149° Southeast  Level FlightAware Approximate
02:05AM -6.4355 90.8534 149° Southeast  Level FlightAware Approximate
02:06AM -6.5453 90.9189 149° Southeast  Level FlightAware Approximate
02:07AM -6.6552 90.9845 149° Southeast  Level FlightAware Approximate
02:08AM -6.7650 91.0500 149° Southeast  Level FlightAware Approximate
02:09AM -6.8748 91.1157 149° Southeast  Level FlightAware Approximate
02:10AM -6.9846 91.1813 149° Southeast  Level FlightAware Approximate
02:11AM -7.0944 91.2470 149° Southeast  Level FlightAware Approximate
02:12AM -7.2042 91.3127 149° Southeast  Level FlightAware Approximate
02:13AM -7.3140 91.3784 149° Southeast  Level FlightAware Approximate
02:14AM -7.4238 91.4442 149° Southeast  Level FlightAware Approximate
02:15AM -7.5335 91.5100 149° Southeast  Level FlightAware Approximate
02:16AM -7.6433 91.5758 149° Southeast  Level FlightAware Approximate
02:17AM -7.7530 91.6417 149° Southeast  Level FlightAware Approximate
02:18AM -7.8628 91.7076 149° Southeast  Level FlightAware Approximate
02:19AM -7.9725 91.7735 149° Southeast  Level FlightAware Approximate
02:20AM -8.0822 91.8395 149° Southeast  Level FlightAware Approximate
02:21AM -8.1919 91.9055 149° Southeast  Level FlightAware Approximate
02:22AM -8.3016 91.9715 149° Southeast  Level FlightAware Approximate
02:23AM -8.4113 92.0376 149° Southeast  Level FlightAware Approximate
02:24AM -8.5209 92.1037 149° Southeast  Level FlightAware Approximate
02:25AM -8.6306 92.1699 149° Southeast  Level FlightAware Approximate
02:26AM -8.7402 92.2361 149° Southeast  Level FlightAware Approximate
02:27AM -8.8499 92.3023 149° Southeast  Level FlightAware Approximate
02:28AM -8.9595 92.3686 149° Southeast  Level FlightAware Approximate
02:29AM -9.0691 92.4349 149° Southeast  Level FlightAware Approximate
02:30AM -9.1787 92.5012 149° Southeast  Level FlightAware Approximate
02:31AM -9.2883 92.5676 149° Southeast  Level FlightAware Approximate
02:32AM -9.3979 92.6340 149° Southeast  Level FlightAware Approximate
02:33AM -9.5074 92.7005 149° Southeast  Level FlightAware Approximate
02:34AM -9.6170 92.7670 149° Southeast  Level FlightAware Approximate
02:35AM -9.7265 92.8336 149° Southeast  Level FlightAware Approximate
02:36AM -9.8361 92.9002 149° Southeast  Level FlightAware Approximate
02:37AM -9.9456 92.9669 149° Southeast  Level FlightAware Approximate
02:38AM -10.0509 93.0398 142° Southeast  Level FlightAware Approximate
02:39AM -10.1521 93.1189 142° Southeast  Level FlightAware Approximate
02:40AM -10.2532 93.1981 142° Southeast  Level FlightAware Approximate
02:41AM -10.3544 93.2773 142° Southeast  Level FlightAware Approximate
02:42AM -10.4555 93.3566 142° Southeast  Level FlightAware Approximate
02:43AM -10.5566 93.4359 142° Southeast  Level FlightAware Approximate
02:44AM -10.6577 93.5153 142° Southeast  Level FlightAware Approximate
02:45AM -10.7587 93.5947 142° Southeast  Level FlightAware Approximate
02:46AM -10.8598 93.6742 142° Southeast  Level FlightAware Approximate
02:47AM -10.9608 93.7537 142° Southeast  Level FlightAware Approximate
02:48AM -11.0618 93.8333 142° Southeast  Level FlightAware Approximate
02:49AM -11.1628 93.9129 142° Southeast  Level FlightAware Approximate
02:50AM -11.2637 93.9926 142° Southeast  Level FlightAware Approximate
02:51AM -11.3647 94.0724 142° Southeast  Level FlightAware Approximate
02:52AM -11.4656 94.1522 142° Southeast  Level FlightAware Approximate
02:53AM -11.5665 94.2321 142° Southeast  Level FlightAware Approximate
02:54AM -11.6673 94.3120 142° Southeast  Level FlightAware Approximate
02:55AM -11.7682 94.3920 142° Southeast  Level FlightAware Approximate
02:56AM -11.8690 94.4720 142° Southeast  Level FlightAware Approximate
02:57AM -11.9698 94.5521 142° Southeast  Level FlightAware Approximate
02:58AM -12.0706 94.6323 142° Southeast  Level FlightAware Approximate
02:59AM -12.1714 94.7125 142° Southeast  Level FlightAware Approximate
03:00AM -12.2721 94.7928 142° Southeast  Level FlightAware Approximate
03:01AM -12.3728 94.8731 142° Southeast  Level FlightAware Approximate
03:02AM -12.4735 94.9535 142° Southeast  Level FlightAware Approximate
03:03AM -12.5742 95.0340 142° Southeast  Level FlightAware Approximate
03:04AM -12.6748 95.1145 142° Southeast  Level FlightAware Approximate
03:05AM -12.7754 95.1951 142° Southeast  Level FlightAware Approximate
03:06AM -12.8760 95.2758 142° Southeast  Level FlightAware Approximate
03:07AM -12.9766 95.3565 142° Southeast  Level FlightAware Approximate
03:08AM -13.0771 95.4373 142° Southeast  Level FlightAware Approximate
03:09AM -13.1776 95.5182 142° Southeast  Level FlightAware Approximate
03:10AM -13.2781 95.5991 142° Southeast  Level FlightAware Approximate
03:11AM -13.3786 95.6801 142° Southeast  Level FlightAware Approximate
03:12AM -13.4790 95.7611 142° Southeast  Level FlightAware Approximate
03:13AM -13.5794 95.8423 142° Southeast  Level FlightAware Approximate
03:14AM -13.6798 95.9235 142° Southeast  Level FlightAware Approximate
03:15AM -13.7802 96.0047 142° Southeast  Level FlightAware Approximate
03:16AM -13.8805 96.0861 142° Southeast  Level FlightAware Approximate
03:17AM -13.9808 96.1674 142° Southeast  Level FlightAware Approximate
03:18AM -14.0811 96.2489 142° Southeast  Level FlightAware Approximate
03:19AM -14.1813 96.3305 142° Southeast  Level FlightAware Approximate
03:20AM -14.2816 96.4121 142° Southeast  Level FlightAware Approximate
03:21AM -14.3818 96.4938 142° Southeast  Level FlightAware Approximate
03:22AM -14.4819 96.5755 142° Southeast  Level FlightAware Approximate
03:23AM -14.5821 96.6574 142° Southeast  Level FlightAware Approximate
03:24AM -14.6822 96.7393 142° Southeast  Level FlightAware Approximate
03:25AM -14.7823 96.8213 142° Southeast  Level FlightAware Approximate
03:26AM -14.8823 96.9034 142° Southeast  Level FlightAware Approximate
03:27AM -14.9823 96.9855 142° Southeast  Level FlightAware Approximate
03:28AM -15.0770 97.0742 137° Southeast  Level FlightAware Approximate
03:29AM -15.1705 97.1643 137° Southeast  Level FlightAware Approximate
03:30AM -15.2639 97.2545 137° Southeast  Level FlightAware Approximate
03:31AM -15.3573 97.3447 137° Southeast  Level FlightAware Approximate
03:32AM -15.4506 97.4351 137° Southeast  Level FlightAware Approximate
03:33AM -15.5439 97.5256 137° Southeast  Level FlightAware Approximate
03:34AM -15.6372 97.6161 137° Southeast  Level FlightAware Approximate
03:35AM -15.7305 97.7067 137° Southeast  Level FlightAware Approximate
03:36AM -15.8237 97.7974 137° Southeast  Level FlightAware Approximate
03:37AM -15.9168 97.8881 137° Southeast  Level FlightAware Approximate
03:38AM -16.0100 97.9790 137° Southeast  Level FlightAware Approximate
03:39AM -16.1031 98.0699 137° Southeast  Level FlightAware Approximate
03:40AM -16.1961 98.1610 137° Southeast  Level FlightAware Approximate
03:41AM -16.2891 98.2521 137° Southeast  Level FlightAware Approximate
03:42AM -16.3821 98.3433 137° Southeast  Level FlightAware Approximate
03:43AM -16.4750 98.4346 137° Southeast  Level FlightAware Approximate
03:44AM -16.5679 98.5259 137° Southeast  Level FlightAware Approximate
03:45AM -16.6608 98.6174 137° Southeast  Level FlightAware Approximate
03:46AM -16.7536 98.7089 137° Southeast  Level FlightAware Approximate
03:47AM -16.8464 98.8006 137° Southeast  Level FlightAware Approximate
03:48AM -16.9391 98.8923 137° Southeast  Level FlightAware Approximate
03:49AM -17.0318 98.9841 137° Southeast  Level FlightAware Approximate
03:50AM -17.1245 99.0760 137° Southeast  Level FlightAware Approximate
03:51AM -17.2171 99.1681 137° Southeast  Level FlightAware Approximate
03:52AM -17.3097 99.2601 136° Southeast  Level FlightAware Approximate
03:53AM -17.4022 99.3523 136° Southeast  Level FlightAware Approximate
03:54AM -17.4947 99.4446 136° Southeast  Level FlightAware Approximate
03:55AM -17.5871 99.5370 136° Southeast  Level FlightAware Approximate
03:56AM -17.6795 99.6295 136° Southeast  Level FlightAware Approximate
03:57AM -17.7719 99.7220 136° Southeast  Level FlightAware Approximate
03:58AM -17.8642 99.8147 136° Southeast  Level FlightAware Approximate
03:59AM -17.9565 99.9075 136° Southeast  Level FlightAware Approximate
04:00AM -18.0487 100.0003 136° Southeast  Level FlightAware Approximate
04:01AM -18.1409 100.0933 136° Southeast  Level FlightAware Approximate
04:02AM -18.2330 100.1863 136° Southeast  Level FlightAware Approximate
04:03AM -18.3251 100.2795 136° Southeast  Level FlightAware Approximate
04:04AM -18.4172 100.3727 136° Southeast  Level FlightAware Approximate
04:05AM -18.5092 100.4661 136° Southeast  Level FlightAware Approximate
04:06AM -18.6011 100.5595 136° Southeast  Level FlightAware Approximate
04:07AM -18.6930 100.6531 136° Southeast  Level FlightAware Approximate
04:08AM -18.7849 100.7467 136° Southeast  Level FlightAware Approximate
04:09AM -18.8767 100.8405 136° Southeast  Level FlightAware Approximate
04:10AM -18.9685 100.9343 136° Southeast  Level FlightAware Approximate
04:11AM -19.0602 101.0283 136° Southeast  Level FlightAware Approximate
04:12AM -19.1519 101.1223 136° Southeast  Level FlightAware Approximate
04:13AM -19.2435 101.2165 136° Southeast  Level FlightAware Approximate
04:14AM -19.3351 101.3108 136° Southeast  Level FlightAware Approximate
04:15AM -19.4266 101.4052 136° Southeast  Level FlightAware Approximate
04:16AM -19.5181 101.4996 136° Southeast  Level FlightAware Approximate
04:17AM -19.6095 101.5942 136° Southeast  Level FlightAware Approximate
04:18AM -19.7009 101.6889 136° Southeast  Level FlightAware Approximate
04:19AM -19.7922 101.7837 136° Southeast  Level FlightAware Approximate
04:20AM -19.8835 101.8786 136° Southeast  Level FlightAware Approximate
04:21AM -19.9747 101.9737 136° Southeast  Level FlightAware Approximate
04:22AM -20.0682 102.0663 138° Southeast  Level FlightAware Approximate
04:23AM -20.1624 102.1580 138° Southeast  Level FlightAware Approximate
04:24AM -20.2566 102.2499 138° Southeast  Level FlightAware Approximate
04:25AM -20.3507 102.3418 138° Southeast  Level FlightAware Approximate
04:26AM -20.4448 102.4339 137° Southeast  Level FlightAware Approximate
04:27AM -20.5389 102.5261 137° Southeast  Level FlightAware Approximate
04:28AM -20.6329 102.6184 137° Southeast  Level FlightAware Approximate
04:29AM -20.7268 102.7109 137° Southeast  Level FlightAware Approximate
04:30AM -20.8207 102.8034 137° Southeast  Level FlightAware Approximate
04:31AM -20.9146 102.8961 137° Southeast  Level FlightAware Approximate
04:32AM -21.0084 102.9888 137° Southeast  Level FlightAware Approximate
04:33AM -21.1021 103.0817 137° Southeast  Level FlightAware Approximate
04:34AM -21.1958 103.1747 137° Southeast  Level FlightAware Approximate
04:35AM -21.2895 103.2679 137° Southeast  Level FlightAware Approximate
04:36AM -21.3831 103.3611 137° Southeast  Level FlightAware Approximate
04:37AM -21.4766 103.4545 137° Southeast  Level FlightAware Approximate
04:38AM -21.5701 103.5479 137° Southeast  Level FlightAware Approximate
04:39AM -21.6636 103.6415 137° Southeast  Level FlightAware Approximate
04:40AM -21.7570 103.7353 137° Southeast  Level FlightAware Approximate
04:41AM -21.8503 103.8291 137° Southeast  Level FlightAware Approximate
04:42AM -21.9436 103.9231 137° Southeast  Level FlightAware Approximate
04:43AM -22.0368 104.0172 137° Southeast  Level FlightAware Approximate
04:44AM -22.1300 104.1114 137° Southeast  Level FlightAware Approximate
04:45AM -22.2231 104.2057 137° Southeast  Level FlightAware Approximate
04:46AM -22.3162 104.3002 137° Southeast  Level FlightAware Approximate
04:47AM -22.4092 104.3948 137° Southeast  Level FlightAware Approximate
04:48AM -22.5021 104.4895 137° Southeast  Level FlightAware Approximate
04:49AM -22.5950 104.5844 137° Southeast  Level FlightAware Approximate
04:50AM -22.6879 104.6794 137° Southeast  Level FlightAware Approximate
04:51AM -22.7807 104.7745 137° Southeast  Level FlightAware Approximate
04:52AM -22.8734 104.8697 137° Southeast  Level FlightAware Approximate
04:53AM -22.9661 104.9650 137° Southeast  Level FlightAware Approximate
04:54AM -23.0601 105.0589 138° Southeast  Level FlightAware Approximate
04:55AM -23.1549 105.1519 138° Southeast  Level FlightAware Approximate
04:56AM -23.2497 105.2450 138° Southeast  Level FlightAware Approximate
04:57AM -23.3444 105.3382 138° Southeast  Level FlightAware Approximate
04:58AM -23.4391 105.4316 138° Southeast  Level FlightAware Approximate
04:59AM -23.5336 105.5251 138° Southeast  Level FlightAware Approximate
05:00AM -23.6282 105.6188 138° Southeast  Level FlightAware Approximate
05:01AM -23.7227 105.7126 138° Southeast  Level FlightAware Approximate
05:02AM -23.8171 105.8065 138° Southeast  Level FlightAware Approximate
05:03AM -23.9114 105.9006 138° Southeast  Level FlightAware Approximate
05:04AM -24.0058 105.9948 138° Southeast  Level FlightAware Approximate
05:05AM -24.1000 106.0891 138° Southeast  Level FlightAware Approximate
05:06AM -24.1942 106.1835 138° Southeast  Level FlightAware Approximate
05:07AM -24.2883 106.2782 138° Southeast  Level FlightAware Approximate
05:08AM -24.3824 106.3729 137° Southeast  Level FlightAware Approximate
05:09AM -24.4764 106.4678 137° Southeast  Level FlightAware Approximate
05:10AM -24.5704 106.5628 137° Southeast  Level FlightAware Approximate
05:11AM -24.6643 106.6580 137° Southeast  Level FlightAware Approximate
05:12AM -24.7581 106.7533 137° Southeast  Level FlightAware Approximate
05:13AM -24.8519 106.8488 137° Southeast  Level FlightAware Approximate
05:14AM -24.9456 106.9444 137° Southeast  Level FlightAware Approximate
05:15AM -25.0403 107.0389 139° Southeast  Level FlightAware Approximate
05:15AM -28.0690 110.0640 139° Southeast 477 549 37,000  Level FlightAware
05:16AM -25.1364 107.1318 139° Southeast  Level FlightAware Approximate
05:16AM -28.1350 110.1270 140° Southeast 475 547 37,000  Level FlightAware
05:16AM -28.1930 110.1810 141° Southeast 475 547 37,000  Level FlightAware
05:17AM -28.2500 110.2360 140° Southeast 475 547 37,000  Level FlightAware
05:18AM -28.3070 110.2900 140° Southeast 475 547 37,000  Level FlightAware
05:19AM -28.3930 110.3720 140° Southeast 475 547 37,000  Level FlightAware
05:19AM -28.4500 110.4270 140° Southeast 475 547 37,000  Level FlightAware
05:20AM -28.5080 110.4810 141° Southeast 475 547 37,000  Level FlightAware
05:21AM -28.5650 110.5360 140° Southeast 475 547 37,000  Level FlightAware
05:21AM -28.6220 110.5910 140° Southeast 475 547 37,000  Level FlightAware
05:22AM -28.6940 110.6590 140° Southeast 475 547 37,000  Level FlightAware
05:23AM -28.7510 110.7140 140° Southeast 475 547 37,000  Level FlightAware
05:24AM -28.8080 110.7690 140° Southeast 475 547 37,000  Level FlightAware
05:24AM -28.8650 110.8240 140° Southeast 475 547 37,000  Level FlightAware
05:25AM -28.9220 110.8780 140° Southeast 475 547 37,000  Level FlightAware
05:28AM -29.1710 111.1142 140° Southeast  Level FlightAware Approximate
05:29AM -29.2692 111.2077 140° Southeast  Level FlightAware Approximate
05:30AM -29.3673 111.3015 140° Southeast  Level FlightAware Approximate
05:31AM -29.4653 111.3954 140° Southeast  Level FlightAware Approximate
05:31AM -29.7315 111.6307 140° Southeast 466 536 37,000  Level Aus ATC (RADAR)
05:32AM -29.5633 111.4895 140° Southeast  Level FlightAware Approximate
05:32AM -29.7561 111.6545 140° Southeast 464 534 37,000  Level Aus ATC (RADAR)
05:32AM -29.8152 111.7089 141° Southeast 454 522 37,000  Level Aus ATC (RADAR)
05:33AM -29.9102 111.8066 138° Southeast 450 518 37,000  Level Aus ATC (RADAR)
05:34AM -29.9603 111.8537 141° Southeast 448 516 37,000  Level Aus ATC (RADAR)
05:35AM -30.0316 111.9498 131° Southeast 434 499 37,000  Level Aus ATC (RADAR)
05:35AM -30.0579 111.9724 143° Southeast 439 505 37,000  Level Aus ATC (RADAR)
05:36AM -30.1258 112.0348 142° Southeast 447 514 37,000  Level Aus ATC (RADAR)
05:36AM -30.2056 112.1151 139° Southeast 444 511 37,000  Level Aus ATC (RADAR)
05:37AM -30.2300 112.1300 139° Southeast 461 531 37,000  Level FlightAware
05:37AM -30.2880 112.1946 139° Southeast 448 516 37,000  Level Aus ATC (RADAR)
05:37AM -30.3090 112.2080 139° Southeast 461 531 37,000  Level FlightAware
05:38AM -30.3740 112.2720 140° Southeast 462 532 37,000  Level FlightAware
05:39AM -30.4390 112.3360 140° Southeast 462 532 37,000  Level FlightAware
05:40AM -30.5100 112.4070 139° Southeast 463 533 37,000  Level FlightAware
05:40AM -30.5660 112.4630 139° Southeast 463 533 37,000  Level FlightAware
05:41AM -30.6320 112.5280 140° Southeast 463 533 37,000  Level FlightAware
05:41AM -30.6648 112.5628 140° Southeast 447 514 37,000  Level Aus ATC (RADAR)
05:42AM -30.7150 112.6100 140° Southeast 454 522 37,000  Level FlightAware
05:42AM -30.7436 112.6440 140° Southeast 439 505 37,000  Level Aus ATC (RADAR)
05:42AM -30.7800 112.6750 140° Southeast 454 522 37,000  Level FlightAware
05:43AM -30.8470 112.7420 139° Southeast 454 522 37,000  Level FlightAware
05:43AM -30.8888 112.7889 139° Southeast 448 516 37,000  Level Aus ATC (RADAR)
05:44AM -30.9080 112.8040 139° Southeast 455 524 37,000  Level FlightAware
05:44AM -30.9449 112.8458 139° Southeast 448 516 37,000  Level Aus ATC (RADAR)
05:44AM -30.9800 112.8760 139° Southeast 455 524 37,000  Level FlightAware
05:45AM -31.0259 112.9256 139° Southeast 446 513 37,000  Level Aus ATC (RADAR)
05:45AM -31.0501 112.9496 140° Southeast 445 512 37,000  Level Aus ATC (RADAR)
05:45AM -31.0490 112.9460 140° Southeast 454 522 37,000  Level FlightAware
05:46AM -31.1060 113.0066 140° Southeast 443 510 37,000  Level Aus ATC (RADAR)
05:46AM -31.1130 113.0100 140° Southeast 453 521 37,000  Level FlightAware
05:46AM -31.1760 113.0740 139° Southeast 454 522 37,000  Level FlightAware
05:47AM -31.2193 113.1198 139° Southeast 447 514 37,000 -540 Level Aus ATC (RADAR)
05:47AM -31.2500 113.1590 139° Southeast 462 532 36,600 -1,440 Descending FlightAware
05:48AM -31.2830 113.2410 115° Southeast 454 522 35,500 -1,800 Descending FlightAware
05:48AM -31.2978 113.3046 115° Southeast 434 499 34,800 -1,620 Descending Aus ATC (RADAR)
05:49AM -31.3120 113.3480 115° Southeast 443 510 34,300 -1,560 Descending FlightAware
05:49AM -31.3370 113.4380 108° East 436 502 33,200 -1,620 Descending FlightAware
05:50AM -31.3524 113.5081 108° East 423 487 32,500 -1,380 Descending Aus ATC (RADAR)
05:50AM -31.3630 113.5360 108° East 454 522 32,200 -1,440 Descending FlightAware
05:51AM -31.3883 113.6388 108° East 448 516 31,200 -1,500 Descending Aus ATC (RADAR)
05:51AM -31.3890 113.6360 108° East 462 532 31,200 -1,260 Level FlightAware
05:51AM -31.4170 113.7420 107° East 458 527 30,200 -1,500 Descending FlightAware
05:52AM -31.4374 113.8288 107° East 443 510 29,300 -1,500 Descending Aus ATC (RADAR)
05:52AM -31.4420 113.8350 107° East 455 524 29,200 -1,500 Descending FlightAware
05:53AM -31.4680 113.9330 107° East 448 516 28,100 -1,740 Descending FlightAware
05:53AM -31.4694 113.9453 107° East 436 502 28,000 -1,380 Descending Aus ATC (RADAR)
05:54AM -31.4940 114.0320 107° East 445 512 27,100 -1,440 Descending FlightAware
05:54AM -31.5082 114.0949 107° East 431 496 26,500 -1,620 Descending Aus ATC (RADAR)
05:55AM -31.5297 114.1769 107° East 438 504 25,600 -1,380 Descending Aus ATC (RADAR)
05:55AM -31.5360 114.1950 107° East 462 532 25,400 -1,500 Descending FlightAware
05:55AM -31.5620 114.2940 107° East 455 524 24,300 -1,860 Descending FlightAware
05:56AM -31.5850 114.3820 107° East 455 524 23,100 -2,220 Descending FlightAware
05:56AM -31.5861 114.3904 107° East 444 511 23,000 -2,640 Descending Aus ATC (RADAR)
05:57AM -31.6140 114.4970 107° East 458 527 20,900 -3,000 Descending FlightAware
05:57AM -31.6252 114.5443 107° East 451 519 19,800 -2,100 Descending Aus ATC (RADAR)
05:57AM -31.6390 114.5920 107° East 448 516 19,500 -1,680 Descending FlightAware
05:58AM -31.6660 114.6970 107° East 429 494 17,900 -2,280 Descending FlightAware
05:59AM -31.6779 114.7485 107° East 418 481 17,000 -2,280 Descending Aus ATC (RADAR)
05:59AM -31.6860 114.7770 107° East 425 489 16,400 -2,400 Descending FlightAware
05:59AM -31.7037 114.8476 107° East 414 476 15,200 -2,280 Descending Aus ATC (RADAR)
06:00AM -31.7090 114.8650 107° East 419 482 14,900 -1,860 Descending FlightAware
06:00AM -31.7333 114.9655 107° East 400 460 13,500 -1,920 Descending Aus ATC (RADAR)
06:00AM -31.7340 114.9650 107° East 403 464 13,500 -2,400 Level FlightAware
06:01AM -31.7545 115.0483 107° East 391 450 11,900 -2,400 Descending Aus ATC (RADAR)
06:01AM -31.7560 115.0520 107° East 398 458 11,900 -1,080 Level FlightAware
06:02AM -31.7740 115.1230 107° East 379 436 11,200 -1,440 Descending FlightAware
06:02AM -31.7855 115.1687 107° East 368 423 10,600 -1,680 Descending Aus ATC (RADAR)
06:02AM -31.7923 115.1977 105° East 363 418 10,200 -1,260 Descending Aus ATC (RADAR)
06:02AM -31.7960 115.2140 105° East 364 419 10,000 -1,080 Descending FlightAware
06:03AM -31.8070 115.2560 105° East 359 413 9,600 -1,440 Descending FlightAware
06:03AM -31.8090 115.2638 105° East 351 404 9,500 -960 Descending Aus ATC (RADAR)
06:03AM -31.8180 115.2990 107° East 356 410 9,200 -1,140 Descending FlightAware
06:03AM -31.8280 115.3420 105° East 351 404 8,700 -1,500 Descending FlightAware
06:04AM -31.8350 115.3730 105° East 349 402 8,200 -1,740 Descending FlightAware
06:04AM -31.8470 115.4250 105° East 345 397 7,400 -1,680 Descending FlightAware
06:04AM -31.8510 115.4450 103° East 344 396 7,100 -1,560 Descending FlightAware
06:05AM -31.8610 115.4870 106° East 340 391 6,500 -1,320 Descending FlightAware
06:05AM -31.8701 115.5469 106° East 328 377 6,000 -900 Descending Aus ATC (RADAR)
06:05AM -31.8690 115.5500 106° East 323 372 6,000 -420 Level FlightAware
06:06AM -31.8681 115.5974 106° East 302 348 5,800 -600 Descending Aus ATC (RADAR)
06:06AM -31.8680 115.6030 106° East 300 345 5,700 -900 Descending FlightAware
06:06AM -31.8670 115.6250 87° East 294 338 5,500 -780 Descending FlightAware
06:07AM -31.8650 115.6650 87° East 282 325 5,200 -600 Descending FlightAware
06:07AM -31.8640 115.6890 87° East 274 315 5,100 -600 Descending FlightAware
06:07AM -31.8622 115.7268 87° East 261 300 4,800 -840 Descending Aus ATC (RADAR)
06:07AM -31.8620 115.7320 87° East 262 302 4,700 -1,080 Descending FlightAware
06:08AM -31.8600 115.7670 86° East 258 297 4,300 -900 Descending FlightAware
06:08AM -31.8600 115.7860 90° East 253 291 4,100 -720 Descending FlightAware
06:08AM -31.8530 115.8240 78° East 241 277 3,800 -720 Descending FlightAware
06:09AM -31.8423 115.8440 78° East 236 272 3,600 -720 Descending Aus ATC (RADAR)
06:09AM -31.8380 115.8530 78° East 228 262 3,500 -240 Descending FlightAware
06:09AM -31.8290 115.8680 55° Northeast 219 252 3,500  Level FlightAware
06:10AM -31.8143 115.8936 55° Northeast 211 243 3,500  Level Aus ATC (RADAR)
06:10AM -31.8130 115.8970 55° Northeast 200 230 3,500  Level FlightAware
06:10AM -31.8000 115.9190 55° Northeast 192 221 3,500 -180 Level FlightAware
06:10AM -31.7960 115.9320 70° East 192 221 3,400 -300 Descending FlightAware
06:10AM -31.7960 115.9360 90° East 192 221 3,400 -780 Level FlightAware
06:11AM -31.7978 115.9764 90° East 187 215 2,900 -900 Descending Aus ATC (RADAR)
06:11AM -31.7990 115.9800 90° East 191 220 2,800 -600 Descending FlightAware
06:11AM -31.8050 115.9930 119° Southeast 189 217 2,700 -960 Descending FlightAware
06:11AM -31.8140 115.9990 150° Southeast 189 217 2,400 -1,200 Descending FlightAware
06:12AM -31.8200 116.0000 172° South 188 216 2,300 -840 Descending FlightAware
06:12AM -31.8360 115.9960 192° South 181 208 2,000 -1,080 Descending FlightAware
06:12AM -31.8624 115.9880 192° South 167 192 1,400 -1,080 Descending Aus ATC (RADAR)
06:13AM -31.8620 115.9880 192° South 150 173 1,400 -900 Level FlightAware
06:13AM -31.8864 115.9805 192° South 153 176 900 -720 Descending Aus ATC (RADAR)
06:13AM -31.8840 115.9810 192° South 151 174 1,000 -720 Climbing FlightAware
06:14AM -31.9060 115.9750 193° South 148 170 500 -960 Descending FlightAware
06:14AM -31.9230 115.9700 193° South 147 169 200 -720 Descending Aus ATC (RADAR)
06:14AM -31.9230 115.9700 193° South 147 169 200  Level FlightAware
06:14AM -31.9340 115.9670 193° South 149 171 -840 Descending FlightAware